Pagrindinis puslapis
METAR-TAF:

METAR-TAF

Oro uostai :

Jezdas, Iranas

platuma: 31-54N, ilguma: 054-24E, Aukštis: 1238 m

Dabartinis oras

Ataskaita buvo paskelbta 14 minutes, ne 09:00 UTC
Vėjas 6 kt iš Šiaurės Vakarų
Temperatūra 20°C
Drėgmė 19%
Slėgis 1023 hPa
Matomumas 10 km arba daugiau
nėra debesų žemiau 1500 m ir nėra kamuolinių lietaus debesų

METAR: OIYY 270900Z 32006KT CAVOK 20/M04 Q1023

Laikas: 12:44 (09:14 UTC)

Prognozė

Ataskaita buvo paskelbta 1 valandą ir 4 minutes, ne 08:10 UTC
Prognozė galioja nuo 27 metu 09 UTC su 27 metu 18 UTC
Vėjas 10 kt iš Vakarų
Matomumas: 8000 m
Laikinai
nuo 27 metu 10 UTC su 27 metu 15 UTC
Vėjas 16 kt iš Šiaurės/Šiaurės Vakarų

TAF: OIYY 270810Z 2709/2718 28010KT 8000 NSC TEMPO 2710/2715 34016KT

Orai ataskaitas ir orų prognozės (METAR, TAF).

turimą stotys yra geltonos ir raudonos taškus žemėlapyje.

Perkelti pele per norėdami pamatyti stoties vardą.

Tada spustelėkite, norėdami matyti oro stebėjimo ir prognozės.

Norėdami pakeisti žemėlapį: spustelėkite ant žalios mygtukų su juodo kryžiaus žemyn,; žalią mygtuką su brūkšneliu, jei norite nutolinti; arba žalių rodyklių gretimoms žemėlapius.


METAR-TAF: